Time;durP1;ratioP1;P1;durP2;ratioP2;P2;SDS_P1;SDS_P2;PMS_P1;PMS_P2;Temp;Humidity;BMP_temperature;BMP_pressure;BME280_temperature;BME280_humidity;BME280_pressure;Samples;Min_cycle;Max_cycle;Signal;HPM_P1;HPM_P2
2022/07/17 00:00:54;;;;;;;;;4.00;4.00;;;;;;;;4999266;28;51114;-65
2022/07/17 00:03:20;;;;;;;;;5.00;4.67;;;;;;;;5011996;28;50932;-64
2022/07/17 00:05:45;;;;;;;;;2.00;2.00;;;;;;;;4995382;28;50901;-64
2022/07/17 00:08:11;;;;;;;;;4.00;4.00;;;;;;;;4993567;28;50976;-65
2022/07/17 00:10:38;;;;;;;;;4.00;4.00;;;;;;;;5000534;28;51917;-65
2022/07/17 00:13:04;;;;;;;;;5.67;5.00;;;;;;;;5006319;28;51278;-65
2022/07/17 00:15:29;;;;;;;;;6.33;5.00;;;;;;;;5004977;28;51271;-65
2022/07/17 00:17:55;;;;;;;;;6.00;5.67;;;;;;;;5001696;28;51124;-65
2022/07/17 00:20:20;;;;;;;;;6.00;4.67;;;;;;;;4989602;28;52270;-65
2022/07/17 00:22:46;;;;;;;;;6.67;5.00;;;;;;;;5012821;28;51037;-65
2022/07/17 00:25:12;;;;;;;;;4.33;4.33;;;;;;;;5007698;28;50927;-65
2022/07/17 00:27:37;;;;;;;;;5.00;5.00;;;;;;;;5000853;28;51341;-65
2022/07/17 00:30:03;;;;;;;;;5.00;4.33;;;;;;;;5012441;28;51787;-66
2022/07/17 00:32:28;;;;;;;;;4.67;4.67;;;;;;;;5012605;28;51001;-66
2022/07/17 00:34:54;;;;;;;;;4.00;3.00;;;;;;;;5008885;28;51055;-66
2022/07/17 00:37:19;;;;;;;;;2.33;2.00;;;;;;;;4999932;28;51056;-66
2022/07/17 00:39:44;;;;;;;;;5.00;4.00;;;;;;;;4992476;28;51331;-66
2022/07/17 00:42:10;;;;;;;;;5.00;5.00;;;;;;;;4996308;28;51191;-66
2022/07/17 00:44:35;;;;;;;;;4.67;4.67;;;;;;;;4990013;28;51145;-66
2022/07/17 00:47:00;;;;;;;;;5.00;4.00;;;;;;;;5001145;28;51359;-66
2022/07/17 00:49:26;;;;;;;;;2.00;2.00;;;;;;;;4999865;28;51841;-66
2022/07/17 00:51:51;;;;;;;;;3.67;3.33;;;;;;;;5008304;28;51057;-66
2022/07/17 00:54:17;;;;;;;;;5.00;5.00;;;;;;;;5015280;28;51098;-66
2022/07/17 00:56:45;;;;;;;;;5.00;5.00;;;;;;;;5016616;28;51008;-66
2022/07/17 00:59:14;;;;;;;;;6.00;6.00;;;;;;;;5010719;28;52075;-67
2022/07/17 01:01:39;;;;;;;;;5.33;5.33;;;;;;;;5000582;28;51070;-66
2022/07/17 01:04:04;;;;;;;;;5.67;5.00;;;;;;;;5015575;28;51050;-66
2022/07/17 01:06:30;;;;;;;;;4.67;4.00;;;;;;;;4989129;28;51373;-65
2022/07/17 01:08:55;;;;;;;;;4.67;4.67;;;;;;;;4995784;28;51708;-65
2022/07/17 01:11:20;;;;;;;;;5.00;5.00;;;;;;;;4999659;28;51653;-65
2022/07/17 01:13:45;;;;;;;;;4.67;4.67;;;;;;;;5008596;28;51128;-65
2022/07/17 01:16:11;;;;;;;;;6.00;5.00;;;;;;;;5014412;28;51345;-66
2022/07/17 01:18:36;;;;;;;;;4.00;4.00;;;;;;;;5013979;28;52908;-65
2022/07/17 01:21:03;;;;;;;;;4.33;4.00;;;;;;;;5015509;28;51020;-66
2022/07/17 01:23:28;;;;;;;;;4.00;4.00;;;;;;;;5000161;28;50979;-65
2022/07/17 01:25:53;;;;;;;;;4.00;4.00;;;;;;;;4996085;28;51015;-64
2022/07/17 01:28:19;;;;;;;;;5.00;5.00;;;;;;;;4995568;28;50948;-66
2022/07/17 01:30:45;;;;;;;;;5.00;4.00;;;;;;;;4995760;28;51105;-65
2022/07/17 01:33:11;;;;;;;;;5.67;5.33;;;;;;;;4992829;28;51078;-65
2022/07/17 01:35:36;;;;;;;;;3.00;3.00;;;;;;;;5001003;28;51396;-65
2022/07/17 01:38:01;;;;;;;;;4.67;4.67;;;;;;;;5014167;28;51084;-65
2022/07/17 01:40:26;;;;;;;;;4.00;3.67;;;;;;;;4991763;28;51149;-65
2022/07/17 01:42:51;;;;;;;;;4.00;4.00;;;;;;;;4995626;28;51196;-65
2022/07/17 01:45:17;;;;;;;;;4.00;4.00;;;;;;;;4995662;28;51050;-65
2022/07/17 01:47:43;;;;;;;;;0.00;0.00;;;;;;;;5001023;28;52425;-65
2022/07/17 01:50:08;;;;;;;;;4.33;4.33;;;;;;;;4979133;28;50968;-65
2022/07/17 01:52:38;;;;;;;;;4.33;3.67;;;;;;;;4991237;28;50970;-65
2022/07/17 01:55:07;;;;;;;;;5.50;4.50;;;;;;;;4977613;28;51126;-65
2022/07/17 01:57:32;;;;;;;;;4.00;4.00;;;;;;;;4994807;28;50949;-64
2022/07/17 01:59:57;;;;;;;;;4.67;4.33;;;;;;;;4995352;28;51091;-67
2022/07/17 02:02:23;;;;;;;;;4.00;4.00;;;;;;;;5013634;28;51206;-65
2022/07/17 02:04:48;;;;;;;;;3.00;3.00;;;;;;;;5009987;28;51003;-65
2022/07/17 02:07:13;;;;;;;;;4.00;4.00;;;;;;;;5006284;28;51069;-64
2022/07/17 02:09:38;;;;;;;;;3.33;3.33;;;;;;;;4994968;28;50941;-65
2022/07/17 02:12:04;;;;;;;;;5.00;5.00;;;;;;;;5000343;28;50877;-65
2022/07/17 02:14:30;;;;;;;;;4.33;3.67;;;;;;;;5005969;28;50927;-64
2022/07/17 02:16:56;;;;;;;;;5.00;4.00;;;;;;;;5012284;28;50900;-64
2022/07/17 02:19:21;;;;;;;;;6.00;5.00;;;;;;;;5013878;28;51219;-64
2022/07/17 02:21:46;;;;;;;;;4.00;4.00;;;;;;;;4996688;28;51073;-65
2022/07/17 02:24:12;;;;;;;;;5.00;4.00;;;;;;;;5005282;28;53214;-65
2022/07/17 02:26:38;;;;;;;;;3.00;3.00;;;;;;;;5007910;28;51023;-65
2022/07/17 02:29:03;;;;;;;;;3.00;3.00;;;;;;;;5014130;28;50996;-65
2022/07/17 02:31:28;;;;;;;;;4.67;4.00;;;;;;;;4994460;28;51086;-65
2022/07/17 02:33:53;;;;;;;;;4.33;4.33;;;;;;;;4994155;28;51212;-65
2022/07/17 02:36:18;;;;;;;;;3.67;3.67;;;;;;;;5002841;28;53045;-65
2022/07/17 02:38:44;;;;;;;;;2.00;2.00;;;;;;;;4985378;28;51063;-65
2022/07/17 02:41:09;;;;;;;;;4.67;3.33;;;;;;;;4988772;28;51161;-66
2022/07/17 02:43:34;;;;;;;;;4.67;4.67;;;;;;;;5014301;28;50930;-65
2022/07/17 02:46:00;;;;;;;;;4.00;4.00;;;;;;;;5006793;28;51084;-65
2022/07/17 02:48:25;;;;;;;;;3.00;3.00;;;;;;;;5004978;28;50996;-65
2022/07/17 02:50:50;;;;;;;;;5.33;4.33;;;;;;;;4995990;28;50997;-66
2022/07/17 02:53:16;;;;;;;;;4.67;3.00;;;;;;;;5014244;28;51039;-66
2022/07/17 02:55:41;;;;;;;;;4.00;4.00;;;;;;;;5010834;28;52286;-64
2022/07/17 02:58:06;;;;;;;;;6.00;4.33;;;;;;;;5002819;28;50964;-64
2022/07/17 03:00:31;;;;;;;;;4.00;4.00;;;;;;;;4997751;28;51286;-63
2022/07/17 03:02:57;;;;;;;;;4.67;4.00;;;;;;;;5001448;28;51275;-65
2022/07/17 03:05:22;;;;;;;;;4.33;4.00;;;;;;;;5007858;28;52097;-65
2022/07/17 03:07:47;;;;;;;;;4.33;4.33;;;;;;;;5013955;28;50956;-64
2022/07/17 03:10:13;;;;;;;;;4.67;4.67;;;;;;;;5013766;28;50883;-65
2022/07/17 03:12:38;;;;;;;;;6.00;5.00;;;;;;;;5003194;28;51095;-66
2022/07/17 03:15:04;;;;;;;;;4.33;4.33;;;;;;;;4991170;28;51828;-66
2022/07/17 03:17:30;;;;;;;;;3.67;3.67;;;;;;;;4983064;28;51066;-66
2022/07/17 03:19:55;;;;;;;;;4.00;4.00;;;;;;;;4996330;28;50988;-65
2022/07/17 03:22:20;;;;;;;;;3.00;3.00;;;;;;;;5013606;28;50892;-64
2022/07/17 03:24:45;;;;;;;;;3.00;3.00;;;;;;;;5003465;28;50884;-65
2022/07/17 03:27:11;;;;;;;;;4.00;4.00;;;;;;;;4996629;28;52119;-65
2022/07/17 03:29:36;;;;;;;;;5.00;5.00;;;;;;;;5002841;28;50978;-65
2022/07/17 03:32:01;;;;;;;;;2.00;2.00;;;;;;;;5014325;28;51099;-64
2022/07/17 03:34:26;;;;;;;;;4.67;3.67;;;;;;;;4999369;28;51024;-65
2022/07/17 03:36:51;;;;;;;;;5.33;4.67;;;;;;;;4994803;28;51019;-64
2022/07/17 03:39:17;;;;;;;;;5.00;5.00;;;;;;;;5002274;28;50978;-64
2022/07/17 03:41:42;;;;;;;;;4.33;4.00;;;;;;;;4993300;28;51003;-65
2022/07/17 03:44:07;;;;;;;;;4.75;4.75;;;;;;;;4993531;28;51792;-63
2022/07/17 03:46:33;;;;;;;;;4.67;4.67;;;;;;;;4992486;28;51104;-64
2022/07/17 03:48:58;;;;;;;;;5.00;4.00;;;;;;;;5000410;28;50933;-64
2022/07/17 03:51:23;;;;;;;;;5.00;5.00;;;;;;;;5002574;28;52457;-65
2022/07/17 03:53:48;;;;;;;;;3.00;3.00;;;;;;;;5003023;28;52123;-64
2022/07/17 03:56:14;;;;;;;;;5.00;5.00;;;;;;;;5012051;28;51137;-65
2022/07/17 03:58:39;;;;;;;;;4.00;4.00;;;;;;;;5012695;28;50890;-65
2022/07/17 04:01:04;;;;;;;;;4.00;4.00;;;;;;;;5011372;28;51398;-65
2022/07/17 04:03:29;;;;;;;;;5.00;4.00;;;;;;;;5006780;28;51771;-64
2022/07/17 04:05:55;;;;;;;;;4.33;4.33;;;;;;;;4992798;28;50999;-64
2022/07/17 04:08:20;;;;;;;;;5.00;3.67;;;;;;;;4988304;28;51301;-65
2022/07/17 04:10:45;;;;;;;;;4.00;4.00;;;;;;;;4994394;28;51369;-66
2022/07/17 04:13:10;;;;;;;;;4.00;4.00;;;;;;;;5007161;28;52412;-64
2022/07/17 04:18:20;;;;;;;;;3.75;3.75;;;;;;;;4996307;28;51275;-66
2022/07/17 04:20:46;;;;;;;;;4.00;4.00;;;;;;;;5009270;28;51275;-64
2022/07/17 04:23:11;;;;;;;;;4.00;4.00;;;;;;;;5010633;28;53045;-64
2022/07/17 04:25:36;;;;;;;;;4.00;4.00;;;;;;;;4992804;28;51047;-64
2022/07/17 04:28:02;;;;;;;;;4.00;4.00;;;;;;;;4992806;28;50920;-65
2022/07/17 04:30:27;;;;;;;;;6.67;6.00;;;;;;;;4993176;28;51316;-65
2022/07/17 04:32:52;;;;;;;;;5.00;5.00;;;;;;;;4992762;28;51977;-65
2022/07/17 04:35:17;;;;;;;;;3.00;3.00;;;;;;;;4998472;28;51071;-65
2022/07/17 04:37:42;;;;;;;;;3.67;3.67;;;;;;;;5012664;28;50953;-64
2022/07/17 04:40:08;;;;;;;;;4.00;4.00;;;;;;;;5005787;28;51296;-65
2022/07/17 04:42:33;;;;;;;;;5.67;4.00;;;;;;;;4992464;28;53136;-65
2022/07/17 04:44:58;;;;;;;;;8.00;7.00;;;;;;;;5007450;28;51087;-65
2022/07/17 04:47:24;;;;;;;;;13.25;11.00;;;;;;;;5011559;28;51099;-64
2022/07/17 04:49:49;;;;;;;;;8.00;8.00;;;;;;;;5005214;28;51196;-63
2022/07/17 04:52:14;;;;;;;;;16.00;15.75;;;;;;;;4989752;28;53724;-64
2022/07/17 04:54:40;;;;;;;;;13.00;13.00;;;;;;;;4996184;28;50947;-65
2022/07/17 04:57:05;;;;;;;;;17.25;16.00;;;;;;;;5004108;28;51327;-65
2022/07/17 04:59:30;;;;;;;;;15.75;13.25;;;;;;;;4999814;28;51339;-65
2022/07/17 05:01:55;;;;;;;;;12.50;12.50;;;;;;;;5006991;28;51029;-64
2022/07/17 05:04:20;;;;;;;;;11.75;10.50;;;;;;;;5011608;28;51048;-66
2022/07/17 05:06:46;;;;;;;;;12.25;11.25;;;;;;;;5002646;28;50872;-64
2022/07/17 05:09:11;;;;;;;;;12.00;11.50;;;;;;;;4990046;28;50933;-65
2022/07/17 05:11:36;;;;;;;;;9.25;8.75;;;;;;;;5010903;28;52416;-65
2022/07/17 05:14:02;;;;;;;;;12.25;12.25;;;;;;;;5003899;28;51121;-65
2022/07/17 05:16:27;;;;;;;;;8.75;7.75;;;;;;;;5001991;28;51087;-65
2022/07/17 05:18:52;;;;;;;;;7.00;6.33;;;;;;;;4974781;28;51076;-64
2022/07/17 05:21:18;;;;;;;;;7.00;6.00;;;;;;;;4992410;28;51182;-64
2022/07/17 05:23:43;;;;;;;;;4.67;4.67;;;;;;;;4996606;28;51133;-64
2022/07/17 05:26:08;;;;;;;;;5.00;5.00;;;;;;;;5006039;28;51133;-64
2022/07/17 05:28:33;;;;;;;;;5.33;5.33;;;;;;;;5011579;28;51104;-65
2022/07/17 05:30:59;;;;;;;;;5.33;5.33;;;;;;;;4991864;28;51751;-64
2022/07/17 05:33:24;;;;;;;;;5.00;5.00;;;;;;;;4995347;28;50995;-65
2022/07/17 05:35:49;;;;;;;;;4.67;4.00;;;;;;;;5006983;28;50971;-65
2022/07/17 05:38:14;;;;;;;;;4.00;3.67;;;;;;;;4992012;28;51281;-65
2022/07/17 05:40:41;;;;;;;;;4.67;4.67;;;;;;;;4998214;28;51184;-64
2022/07/17 05:43:06;;;;;;;;;4.67;4.67;;;;;;;;5014671;28;50984;-64
2022/07/17 05:45:31;;;;;;;;;4.33;4.33;;;;;;;;5003387;28;50956;-65
2022/07/17 05:47:56;;;;;;;;;3.33;3.33;;;;;;;;5015375;28;50900;-66
2022/07/17 05:50:21;;;;;;;;;5.33;5.00;;;;;;;;4995381;28;53890;-66
2022/07/17 05:52:47;;;;;;;;;4.00;4.00;;;;;;;;5014906;28;50955;-66
2022/07/17 05:55:12;;;;;;;;;3.00;3.00;;;;;;;;5009772;28;51054;-66
2022/07/17 05:57:37;;;;;;;;;4.00;3.67;;;;;;;;4985253;28;50927;-65
2022/07/17 06:00:03;;;;;;;;;5.00;4.67;;;;;;;;5009978;28;50916;-65
2022/07/17 06:02:28;;;;;;;;;6.00;5.00;;;;;;;;4979546;28;51105;-66
2022/07/17 06:04:53;;;;;;;;;4.00;4.00;;;;;;;;5014485;28;50856;-65
2022/07/17 06:07:18;;;;;;;;;4.00;4.00;;;;;;;;5002268;28;50885;-65
2022/07/17 06:09:43;;;;;;;;;3.00;3.00;;;;;;;;4976981;28;51905;-64
2022/07/17 06:12:09;;;;;;;;;3.33;2.67;;;;;;;;5012811;28;50968;-65
2022/07/17 06:14:34;;;;;;;;;2.00;2.00;;;;;;;;5008036;28;51044;-66
2022/07/17 06:16:59;;;;;;;;;3.00;2.00;;;;;;;;5011332;28;51333;-65
2022/07/17 06:19:24;;;;;;;;;3.33;3.33;;;;;;;;5000327;28;51237;-65
2022/07/17 06:21:50;;;;;;;;;2.33;2.33;;;;;;;;4977451;28;51032;-66
2022/07/17 06:24:15;;;;;;;;;4.00;4.00;;;;;;;;4987005;28;50908;-65
2022/07/17 06:26:40;;;;;;;;;4.00;3.00;;;;;;;;5015173;28;51300;-66
2022/07/17 06:29:05;;;;;;;;;4.67;4.67;;;;;;;;5013450;28;52173;-65
2022/07/17 06:31:30;;;;;;;;;3.67;3.67;;;;;;;;5003068;28;50969;-67
2022/07/17 06:33:56;;;;;;;;;3.33;3.33;;;;;;;;4993804;28;50993;-64
2022/07/17 06:36:21;;;;;;;;;3.67;3.00;;;;;;;;5014495;28;50938;-65
2022/07/17 06:38:46;;;;;;;;;3.00;2.33;;;;;;;;5006855;28;50900;-66
2022/07/17 06:41:11;;;;;;;;;2.00;2.00;;;;;;;;4994135;28;50950;-66
2022/07/17 06:43:36;;;;;;;;;3.00;3.00;;;;;;;;5004903;28;53056;-65
2022/07/17 06:46:02;;;;;;;;;2.00;2.00;;;;;;;;4993748;28;51204;-65
2022/07/17 06:48:27;;;;;;;;;4.00;3.00;;;;;;;;5000534;28;52080;-66
2022/07/17 06:50:52;;;;;;;;;2.33;2.00;;;;;;;;5012680;28;51179;-66
2022/07/17 06:53:17;;;;;;;;;4.00;4.00;;;;;;;;5007869;28;51068;-66
2022/07/17 06:55:43;;;;;;;;;2.67;2.67;;;;;;;;5000617;28;51211;-66
2022/07/17 06:58:08;;;;;;;;;3.00;2.00;;;;;;;;4993997;28;51613;-65
2022/07/17 07:00:33;;;;;;;;;3.00;2.33;;;;;;;;4997845;28;51059;-65
2022/07/17 07:02:58;;;;;;;;;2.00;2.00;;;;;;;;5010929;28;51317;-66
2022/07/17 07:05:24;;;;;;;;;3.00;3.00;;;;;;;;5001831;28;52764;-66
2022/07/17 07:07:49;;;;;;;;;3.00;3.00;;;;;;;;4977654;28;53827;-66
2022/07/17 07:10:14;;;;;;;;;3.00;2.67;;;;;;;;4991061;28;51182;-66
2022/07/17 07:12:40;;;;;;;;;4.00;4.00;;;;;;;;5013370;28;51114;-66
2022/07/17 07:15:06;;;;;;;;;1.67;1.67;;;;;;;;5001698;28;51237;-65
2022/07/17 07:17:33;;;;;;;;;1.67;1.67;;;;;;;;5010349;28;52999;-66
2022/07/17 07:19:59;;;;;;;;;3.00;3.00;;;;;;;;4999993;28;50956;-66
2022/07/17 07:22:25;;;;;;;;;3.67;2.67;;;;;;;;5004824;28;51176;-66
2022/07/17 07:24:50;;;;;;;;;3.00;3.00;;;;;;;;4995704;28;51254;-66
2022/07/17 07:27:15;;;;;;;;;2.00;2.00;;;;;;;;4992593;28;50910;-66
2022/07/17 07:29:40;;;;;;;;;3.00;2.33;;;;;;;;5012258;28;50833;-66
2022/07/17 07:32:05;;;;;;;;;2.00;2.00;;;;;;;;4993770;28;51102;-66
2022/07/17 07:34:31;;;;;;;;;2.33;2.33;;;;;;;;4993535;28;51345;-66
2022/07/17 07:36:56;;;;;;;;;3.00;3.00;;;;;;;;5000764;28;52849;-66
2022/07/17 07:39:22;;;;;;;;;2.67;2.67;;;;;;;;5009030;28;51064;-66
2022/07/17 07:41:47;;;;;;;;;3.33;2.67;;;;;;;;5012380;28;51042;-66
2022/07/17 07:44:12;;;;;;;;;2.00;2.00;;;;;;;;5013483;28;51060;-67
2022/07/17 07:46:38;;;;;;;;;2.33;2.33;;;;;;;;5013259;28;51541;-65
2022/07/17 07:49:03;;;;;;;;;2.00;2.00;;;;;;;;5012836;28;51160;-66
2022/07/17 07:51:29;;;;;;;;;3.67;3.67;;;;;;;;5012998;28;51005;-66
2022/07/17 07:53:54;;;;;;;;;3.00;3.00;;;;;;;;5008474;28;51263;-65
2022/07/17 07:56:19;;;;;;;;;2.33;2.00;;;;;;;;5000864;28;51096;-66
2022/07/17 07:58:45;;;;;;;;;4.00;3.00;;;;;;;;4993365;28;51002;-65
2022/07/17 08:01:10;;;;;;;;;2.00;2.00;;;;;;;;5002287;28;50977;-66
2022/07/17 08:03:35;;;;;;;;;1.67;1.67;;;;;;;;5004949;28;51092;-66
2022/07/17 08:06:00;;;;;;;;;2.67;2.33;;;;;;;;5010179;28;50939;-65
2022/07/17 08:08:26;;;;;;;;;2.33;2.00;;;;;;;;5000369;28;51022;-66
2022/07/17 08:10:51;;;;;;;;;2.00;1.67;;;;;;;;5001585;28;51006;-65
2022/07/17 08:13:17;;;;;;;;;2.00;2.00;;;;;;;;5010762;28;51061;-66
2022/07/17 08:15:42;;;;;;;;;3.67;3.67;;;;;;;;5006635;28;51790;-66
2022/07/17 08:18:07;;;;;;;;;3.00;3.00;;;;;;;;4992240;28;51019;-65
2022/07/17 08:20:32;;;;;;;;;1.67;1.67;;;;;;;;5009214;28;50841;-65
2022/07/17 08:22:57;;;;;;;;;3.33;3.33;;;;;;;;4984794;28;51171;-66
2022/07/17 08:25:23;;;;;;;;;2.00;1.00;;;;;;;;4991946;28;52040;-66
2022/07/17 08:27:48;;;;;;;;;2.67;2.67;;;;;;;;4990339;28;50984;-66
2022/07/17 08:30:14;;;;;;;;;3.00;3.00;;;;;;;;4994037;28;51292;-67
2022/07/17 08:32:39;;;;;;;;;4.00;2.00;;;;;;;;5000842;28;51118;-66
2022/07/17 08:35:05;;;;;;;;;3.00;3.00;;;;;;;;4999068;28;51223;-68
2022/07/17 08:37:30;;;;;;;;;2.67;2.33;;;;;;;;4992446;28;50930;-66
2022/07/17 08:39:55;;;;;;;;;1.00;1.00;;;;;;;;4992100;28;50979;-67
2022/07/17 08:42:21;;;;;;;;;2.67;2.00;;;;;;;;4994337;28;51051;-66
2022/07/17 08:44:46;;;;;;;;;2.00;2.00;;;;;;;;4989607;28;52890;-66
2022/07/17 08:47:12;;;;;;;;;2.00;2.00;;;;;;;;4988569;28;50963;-66
2022/07/17 08:49:40;;;;;;;;;3.00;3.00;;;;;;;;4989408;28;51133;-66
2022/07/17 08:52:06;;;;;;;;;3.00;3.00;;;;;;;;5012067;28;51087;-66
2022/07/17 08:54:31;;;;;;;;;3.00;2.00;;;;;;;;5011607;28;51110;-66
2022/07/17 08:56:57;;;;;;;;;2.00;2.00;;;;;;;;5009872;28;53175;-67
2022/07/17 08:59:22;;;;;;;;;3.00;3.00;;;;;;;;4994991;28;51155;-68
2022/07/17 09:01:47;;;;;;;;;3.00;2.33;;;;;;;;5004003;28;51368;-68
2022/07/17 09:04:12;;;;;;;;;2.00;2.00;;;;;;;;4984336;28;52959;-66
2022/07/17 09:06:38;;;;;;;;;2.00;2.00;;;;;;;;4993544;28;51082;-66
2022/07/17 09:09:13;;;;;;;;;2.00;2.00;;;;;;;;5008309;28;51034;-65
2022/07/17 09:11:52;;;;;;;;;2.33;2.33;;;;;;;;4991954;28;51277;-65
2022/07/17 09:14:18;;;;;;;;;2.00;2.00;;;;;;;;5001736;28;51092;-65
2022/07/17 09:16:51;;;;;;;;;3.00;3.00;;;;;;;;4990973;28;51277;-66
2022/07/17 09:19:31;;;;;;;;;2.00;2.00;;;;;;;;5015014;28;51091;-67
2022/07/17 09:22:10;;;;;;;;;1.33;1.33;;;;;;;;5014937;28;51095;-67
2022/07/17 09:24:55;;;;;;;;;2.33;2.33;;;;;;;;5014889;28;51096;-65
2022/07/17 09:27:23;;;;;;;;;4.00;3.00;;;;;;;;4997307;28;50963;-65
2022/07/17 09:29:52;;;;;;;;;2.00;2.00;;;;;;;;5015292;28;50935;-66
2022/07/17 09:32:20;;;;;;;;;4.00;3.33;;;;;;;;5015423;28;51183;-66
2022/07/17 09:34:46;;;;;;;;;2.00;2.00;;;;;;;;4993500;28;53030;-66
2022/07/17 09:37:12;;;;;;;;;3.67;3.67;;;;;;;;5002445;28;51209;-68
2022/07/17 09:39:38;;;;;;;;;3.67;2.67;;;;;;;;4994873;28;50974;-66
2022/07/17 09:42:03;;;;;;;;;2.00;2.00;;;;;;;;5006692;28;51220;-64
2022/07/17 09:44:28;;;;;;;;;3.00;2.67;;;;;;;;4991568;28;52882;-65
2022/07/17 09:46:55;;;;;;;;;3.00;3.00;;;;;;;;5002620;28;50926;-66
2022/07/17 09:49:24;;;;;;;;;3.00;3.00;;;;;;;;5005526;28;52060;-68
2022/07/17 09:51:49;;;;;;;;;3.00;3.00;;;;;;;;5013146;28;51004;-65
2022/07/17 09:54:15;;;;;;;;;2.00;2.00;;;;;;;;5006820;28;51866;-66
2022/07/17 09:56:40;;;;;;;;;3.00;3.00;;;;;;;;5009924;28;50869;-67
2022/07/17 09:59:09;;;;;;;;;3.00;3.00;;;;;;;;5010597;28;50914;-66
2022/07/17 10:01:35;;;;;;;;;3.00;3.00;;;;;;;;5007954;28;51301;-66
2022/07/17 10:04:01;;;;;;;;;3.00;3.00;;;;;;;;4992108;28;53513;-66
2022/07/17 10:06:27;;;;;;;;;3.00;3.00;;;;;;;;5010558;28;51327;-67
2022/07/17 10:08:53;;;;;;;;;1.67;1.67;;;;;;;;5002170;28;50904;-65
2022/07/17 10:11:20;;;;;;;;;2.67;2.00;;;;;;;;5007684;28;51086;-66
2022/07/17 10:13:46;;;;;;;;;1.00;1.00;;;;;;;;5011529;28;51172;-67
2022/07/17 10:16:11;;;;;;;;;4.00;4.00;;;;;;;;5005110;28;51102;-67
2022/07/17 10:18:40;;;;;;;;;3.33;3.00;;;;;;;;5008698;28;51495;-67
2022/07/17 10:21:15;;;;;;;;;1.67;1.67;;;;;;;;5011771;28;51168;-66
2022/07/17 10:23:41;;;;;;;;;2.67;2.00;;;;;;;;5010396;28;51599;-66
2022/07/17 10:26:07;;;;;;;;;3.67;2.67;;;;;;;;5008935;28;51038;-65
2022/07/17 10:28:45;;;;;;;;;4.00;3.00;;;;;;;;5012339;28;51072;-66
2022/07/17 10:31:21;;;;;;;;;2.00;2.00;;;;;;;;4993471;28;51319;-66
2022/07/17 10:33:54;;;;;;;;;3.00;2.00;;;;;;;;5009089;28;52001;-66
2022/07/17 10:36:19;;;;;;;;;2.00;2.00;;;;;;;;5000110;28;51119;-65
2022/07/17 10:38:44;;;;;;;;;3.00;3.00;;;;;;;;5006698;28;51142;-66
2022/07/17 10:41:19;;;;;;;;;1.67;1.67;;;;;;;;5008151;28;51080;-69
2022/07/17 10:43:44;;;;;;;;;3.33;3.33;;;;;;;;4989750;28;53850;-67
2022/07/17 10:46:10;;;;;;;;;1.33;1.33;;;;;;;;4989714;28;51053;-67
2022/07/17 10:48:35;;;;;;;;;2.00;2.00;;;;;;;;5008436;28;51125;-67
2022/07/17 10:51:00;;;;;;;;;2.00;2.00;;;;;;;;4996265;28;51177;-66
2022/07/17 10:53:29;;;;;;;;;3.00;3.00;;;;;;;;5009830;28;52173;-66
2022/07/17 10:55:55;;;;;;;;;1.33;1.33;;;;;;;;5005742;28;51088;-67
2022/07/17 10:58:20;;;;;;;;;4.00;3.00;;;;;;;;4990802;28;51116;-68
2022/07/17 11:01:15;;;;;;;;;3.67;3.00;;;;;;;;5011968;28;51136;-67
2022/07/17 11:03:49;;;;;;;;;2.00;2.00;;;;;;;;4991483;28;53701;-68
2022/07/17 11:06:19;;;;;;;;;2.33;2.33;;;;;;;;5004441;28;52772;-66
2022/07/17 11:08:56;;;;;;;;;2.00;2.00;;;;;;;;5011595;28;51151;-67
2022/07/17 11:11:23;;;;;;;;;2.67;2.67;;;;;;;;5011444;28;51269;-65
2022/07/17 11:13:48;;;;;;;;;2.67;2.67;;;;;;;;5007360;28;52142;-68
2022/07/17 11:16:23;;;;;;;;;2.00;2.00;;;;;;;;5003315;28;51096;-66
2022/07/17 11:18:48;;;;;;;;;4.00;3.00;;;;;;;;5011783;28;51244;-67
2022/07/17 11:21:14;;;;;;;;;2.00;2.00;;;;;;;;5009680;28;51120;-68
2022/07/17 11:23:49;;;;;;;;;3.33;3.00;;;;;;;;5000970;28;52016;-67
2022/07/17 11:26:14;;;;;;;;;4.33;3.33;;;;;;;;4982645;28;51258;-67
2022/07/17 11:28:42;;;;;;;;;2.33;2.33;;;;;;;;5002374;28;51074;-67
2022/07/17 11:31:24;;;;;;;;;1.67;1.67;;;;;;;;5004028;28;51191;-67
2022/07/17 11:33:53;;;;;;;;;3.00;3.00;;;;;;;;5005053;28;52784;-68
2022/07/17 11:36:26;;;;;;;;;4.33;3.33;;;;;;;;5003440;28;50923;-68
2022/07/17 11:38:52;;;;;;;;;5.00;4.00;;;;;;;;5012393;28;51313;-66
2022/07/17 11:41:18;;;;;;;;;2.00;2.00;;;;;;;;5012808;28;50984;-66
2022/07/17 11:43:43;;;;;;;;;3.00;3.00;;;;;;;;5012007;28;50975;-66
2022/07/17 11:46:08;;;;;;;;;2.00;2.00;;;;;;;;5012232;28;50826;-66
2022/07/17 11:48:34;;;;;;;;;4.00;4.00;;;;;;;;4994637;28;51333;-65
2022/07/17 11:50:59;;;;;;;;;5.00;4.00;;;;;;;;4994451;28;51203;-67
2022/07/17 11:53:34;;;;;;;;;4.00;4.00;;;;;;;;4981229;28;53783;-67
2022/07/17 11:56:00;;;;;;;;;4.00;4.00;;;;;;;;5005836;28;51027;-67
2022/07/17 11:58:25;;;;;;;;;2.33;2.33;;;;;;;;4994906;28;50869;-66
2022/07/17 12:01:00;;;;;;;;;5.33;5.00;;;;;;;;4981309;28;51246;-66
2022/07/17 12:03:25;;;;;;;;;2.00;2.00;;;;;;;;5011749;28;50923;-66
2022/07/17 12:05:50;;;;;;;;;5.00;4.00;;;;;;;;5010973;28;50972;-66
2022/07/17 12:08:22;;;;;;;;;3.67;3.00;;;;;;;;4998723;28;50983;-66
2022/07/17 12:10:47;;;;;;;;;5.00;3.67;;;;;;;;4985143;28;51011;-66
2022/07/17 12:13:13;;;;;;;;;3.67;3.00;;;;;;;;5000982;28;51849;-66
2022/07/17 12:15:40;;;;;;;;;3.00;2.67;;;;;;;;4995040;28;50925;-67
2022/07/17 12:18:06;;;;;;;;;3.67;3.67;;;;;;;;4993740;28;51180;-65
2022/07/17 12:20:45;;;;;;;;;2.00;2.00;;;;;;;;4991863;28;51286;-66
2022/07/17 12:23:28;;;;;;;;;2.00;2.00;;;;;;;;5003674;28;51890;-67
2022/07/17 12:26:04;;;;;;;;;2.00;2.00;;;;;;;;4996424;28;51093;-65
2022/07/17 12:28:30;;;;;;;;;4.67;4.67;;;;;;;;5011626;28;51029;-65
2022/07/17 12:30:55;;;;;;;;;3.00;3.00;;;;;;;;5003217;28;51098;-66
2022/07/17 12:33:20;;;;;;;;;6.67;6.33;;;;;;;;4983953;28;53815;-65
2022/07/17 12:35:45;;;;;;;;;4.33;4.33;;;;;;;;4992406;28;51127;-66
2022/07/17 12:38:10;;;;;;;;;4.00;3.33;;;;;;;;4994899;28;50966;-66
2022/07/17 12:40:36;;;;;;;;;4.00;4.00;;;;;;;;5005251;28;51404;-66
2022/07/17 12:43:01;;;;;;;;;3.00;3.00;;;;;;;;5003926;28;52437;-65
2022/07/17 12:45:26;;;;;;;;;4.00;4.00;;;;;;;;4995048;28;51167;-66
2022/07/17 12:47:51;;;;;;;;;4.00;4.00;;;;;;;;4994234;28;51230;-65
2022/07/17 12:50:17;;;;;;;;;0.00;0.00;;;;;;;;5010629;28;51318;-65
2022/07/17 12:52:42;;;;;;;;;3.33;2.00;;;;;;;;5011651;28;51001;-66
2022/07/17 12:55:08;;;;;;;;;2.00;2.00;;;;;;;;5010165;28;50941;-65
2022/07/17 12:57:33;;;;;;;;;3.00;3.00;;;;;;;;4992593;28;51775;-66
2022/07/17 12:59:58;;;;;;;;;3.00;3.00;;;;;;;;5011739;28;51208;-66
2022/07/17 13:02:24;;;;;;;;;3.33;3.33;;;;;;;;5004162;28;51856;-65
2022/07/17 13:04:49;;;;;;;;;5.00;5.00;;;;;;;;4991607;28;51223;-65
2022/07/17 13:07:14;;;;;;;;;4.00;4.00;;;;;;;;4991903;28;51150;-66
2022/07/17 13:09:39;;;;;;;;;2.33;2.00;;;;;;;;5002216;28;51264;-66
2022/07/17 13:12:05;;;;;;;;;5.00;5.00;;;;;;;;4999458;28;52014;-66
2022/07/17 13:14:30;;;;;;;;;3.00;3.00;;;;;;;;5006724;28;51077;-65
2022/07/17 13:16:55;;;;;;;;;3.00;3.00;;;;;;;;4980584;28;51160;-66
2022/07/17 13:19:21;;;;;;;;;2.00;2.00;;;;;;;;5002173;28;50994;-66
2022/07/17 13:21:47;;;;;;;;;0.00;0.00;;;;;;;;5009006;28;51126;-66
2022/07/17 13:24:12;;;;;;;;;2.33;2.00;;;;;;;;5011368;28;51180;-65
2022/07/17 13:26:37;;;;;;;;;2.00;2.00;;;;;;;;5011434;28;51173;-66
2022/07/17 13:29:02;;;;;;;;;7.00;4.67;;;;;;;;5005669;28;51010;-66
2022/07/17 13:31:27;;;;;;;;;2.00;2.00;;;;;;;;5007201;28;52070;-65
2022/07/17 13:33:53;;;;;;;;;4.00;3.67;;;;;;;;5009914;28;50984;-65
2022/07/17 13:36:18;;;;;;;;;3.00;3.00;;;;;;;;4993155;28;50958;-65
2022/07/17 13:38:43;;;;;;;;;4.00;3.67;;;;;;;;5011583;28;51018;-66
2022/07/17 13:41:09;;;;;;;;;5.33;4.67;;;;;;;;4993107;28;53170;-66
2022/07/17 13:43:34;;;;;;;;;5.00;4.00;;;;;;;;5010975;28;51097;-66
2022/07/17 13:45:59;;;;;;;;;2.33;2.33;;;;;;;;5002486;28;51128;-66
2022/07/17 13:48:25;;;;;;;;;3.67;3.00;;;;;;;;5010899;28;51547;-66
2022/07/17 13:50:50;;;;;;;;;2.00;2.00;;;;;;;;5010005;28;51008;-66
2022/07/17 13:53:16;;;;;;;;;3.00;3.00;;;;;;;;4992901;28;51122;-66
2022/07/17 13:55:41;;;;;;;;;3.67;2.33;;;;;;;;5010972;28;51010;-66
2022/07/17 13:58:07;;;;;;;;;3.00;2.33;;;;;;;;4999241;28;51260;-65
2022/07/17 14:00:33;;;;;;;;;2.33;2.33;;;;;;;;5002685;28;51131;-65
2022/07/17 14:02:58;;;;;;;;;3.00;3.00;;;;;;;;4991766;28;51045;-65
2022/07/17 14:05:23;;;;;;;;;4.00;3.00;;;;;;;;5014158;28;51114;-66
2022/07/17 14:07:48;;;;;;;;;2.50;2.50;;;;;;;;4996249;28;51086;-65
2022/07/17 14:10:14;;;;;;;;;2.00;2.00;;;;;;;;4987610;28;52486;-65
2022/07/17 14:12:39;;;;;;;;;3.00;3.00;;;;;;;;4994199;28;50873;-64
2022/07/17 14:15:06;;;;;;;;;4.00;4.00;;;;;;;;5008865;28;51009;-66
2022/07/17 14:17:32;;;;;;;;;6.00;5.00;;;;;;;;5006241;28;51163;-66
2022/07/17 14:19:57;;;;;;;;;4.33;3.67;;;;;;;;5013059;28;51856;-64
2022/07/17 14:22:22;;;;;;;;;4.00;4.00;;;;;;;;5013076;28;51066;-66
2022/07/17 14:24:47;;;;;;;;;4.33;4.00;;;;;;;;5014052;28;50988;-66
2022/07/17 14:27:13;;;;;;;;;3.00;3.00;;;;;;;;4996337;28;51046;-65
2022/07/17 14:29:38;;;;;;;;;5.00;5.00;;;;;;;;5013440;28;52484;-66
2022/07/17 14:32:03;;;;;;;;;7.67;7.00;;;;;;;;5013791;28;50999;-66
2022/07/17 14:34:29;;;;;;;;;12.33;12.00;;;;;;;;5001552;28;51001;-64
2022/07/17 14:36:54;;;;;;;;;9.33;9.00;;;;;;;;5010099;28;50963;-66
2022/07/17 14:39:19;;;;;;;;;12.33;12.33;;;;;;;;5010518;28;51582;-64